sensor_id;sensor_type;location;lat;lon;timestamp;pressure;altitude;pressure_sealevel;temperature;humidity
2268;BME280;11052;43.338;25.502;2023-01-16T00:02:10;100669.63;;;2.26;100.00
2268;BME280;11052;43.338;25.502;2023-01-16T00:04:37;100675.53;;;2.21;100.00
2268;BME280;11052;43.338;25.502;2023-01-16T00:07:04;100666.94;;;2.14;100.00
2268;BME280;11052;43.338;25.502;2023-01-16T00:09:31;100672.88;;;2.12;100.00
2268;BME280;11052;43.338;25.502;2023-01-16T00:12:00;100673.78;;;2.15;100.00
2268;BME280;11052;43.338;25.502;2023-01-16T00:14:28;100673.75;;;2.12;100.00
2268;BME280;11052;43.338;25.502;2023-01-16T00:16:56;100668.66;;;2.15;100.00
2268;BME280;11052;43.338;25.502;2023-01-16T00:19:23;100660.06;;;2.09;100.00
2268;BME280;11052;43.338;25.502;2023-01-16T00:21:50;100659.25;;;2.11;100.00
2268;BME280;11052;43.338;25.502;2023-01-16T00:24:17;100671.13;;;2.08;100.00
2268;BME280;11052;43.338;25.502;2023-01-16T00:26:44;100666.81;;;2.01;100.00
2268;BME280;11052;43.338;25.502;2023-01-16T00:29:12;100655.75;;;2.05;100.00
2268;BME280;11052;43.338;25.502;2023-01-16T00:31:40;100666.81;;;2.02;100.00
2268;BME280;11052;43.338;25.502;2023-01-16T00:34:07;100658.25;;;1.97;100.00
2268;BME280;11052;43.338;25.502;2023-01-16T00:36:34;100661.66;;;1.99;100.00
2268;BME280;11052;43.338;25.502;2023-01-16T00:39:02;100659.13;;;1.99;100.00
2268;BME280;11052;43.338;25.502;2023-01-16T00:41:29;100659.00;;;1.88;100.00
2268;BME280;11052;43.338;25.502;2023-01-16T00:43:56;100653.84;;;1.85;100.00
2268;BME280;11052;43.338;25.502;2023-01-16T00:46:26;100658.84;;;1.76;100.00
2268;BME280;11052;43.338;25.502;2023-01-16T00:48:55;100657.94;;;1.68;100.00
2268;BME280;11052;43.338;25.502;2023-01-16T00:51:22;100660.50;;;1.68;100.00
2268;BME280;11052;43.338;25.502;2023-01-16T00:53:49;100656.28;;;1.72;100.00
2268;BME280;11052;43.338;25.502;2023-01-16T00:56:16;100651.00;;;1.56;100.00
2268;BME280;11052;43.338;25.502;2023-01-16T00:58:43;100644.09;;;1.49;100.00
2268;BME280;11052;43.338;25.502;2023-01-16T01:01:10;100651.72;;;1.48;100.00
2268;BME280;11052;43.338;25.502;2023-01-16T01:03:38;100651.69;;;1.43;100.00
2268;BME280;11052;43.338;25.502;2023-01-16T01:06:06;100646.44;;;1.33;100.00
2268;BME280;11052;43.338;25.502;2023-01-16T01:08:33;100637.88;;;1.29;100.00
2268;BME280;11052;43.338;25.502;2023-01-16T01:11:06;100629.28;;;1.22;100.00
2268;BME280;11052;43.338;25.502;2023-01-16T01:13:33;100625.63;;;1.04;100.00
2268;BME280;11052;43.338;25.502;2023-01-16T01:16:00;100622.13;;;0.97;100.00
2268;BME280;11052;43.338;25.502;2023-01-16T01:18:27;100617.00;;;0.95;100.00
2268;BME280;11052;43.338;25.502;2023-01-16T01:20:55;100609.28;;;0.91;100.00
2268;BME280;11052;43.338;25.502;2023-01-16T01:23:22;100608.50;;;0.96;100.00
2268;BME280;11052;43.338;25.502;2023-01-16T01:25:49;100608.44;;;0.92;100.00
2268;BME280;11052;43.338;25.502;2023-01-16T01:28:18;100606.84;;;1.00;100.00
2268;BME280;11052;43.338;25.502;2023-01-16T01:30:45;100606.94;;;1.06;100.00
2268;BME280;11052;43.338;25.502;2023-01-16T01:33:12;100614.59;;;1.06;100.00
2268;BME280;11052;43.338;25.502;2023-01-16T01:35:39;100609.53;;;1.11;100.00
2268;BME280;11052;43.338;25.502;2023-01-16T01:38:08;100606.94;;;1.06;100.00
2268;BME280;11052;43.338;25.502;2023-01-16T01:40:35;100614.50;;;1.00;100.00
2268;BME280;11052;43.338;25.502;2023-01-16T01:43:02;100614.63;;;1.08;100.00
2268;BME280;11052;43.338;25.502;2023-01-16T01:45:30;100606.91;;;1.05;100.00
2268;BME280;11052;43.338;25.502;2023-01-16T01:48:03;100606.06;;;1.06;100.00
2268;BME280;11052;43.338;25.502;2023-01-16T01:50:36;100600.22;;;1.13;100.00
2268;BME280;11052;43.338;25.502;2023-01-16T01:53:11;100593.28;;;1.03;100.00
2268;BME280;11052;43.338;25.502;2023-01-16T01:55:40;100594.09;;;1.00;100.00
2268;BME280;11052;43.338;25.502;2023-01-16T01:58:09;100599.22;;;1.02;100.00
2268;BME280;11052;43.338;25.502;2023-01-16T02:00:40;100608.59;;;1.04;100.00
2268;BME280;11052;43.338;25.502;2023-01-16T02:03:10;100610.81;;;0.78;100.00
2268;BME280;11052;43.338;25.502;2023-01-16T02:05:43;100607.25;;;0.67;100.00
2268;BME280;11052;43.338;25.502;2023-01-16T02:08:15;100595.28;;;0.61;100.00
2268;BME280;11052;43.338;25.502;2023-01-16T02:10:46;100598.75;;;0.67;100.00
2268;BME280;11052;43.338;25.502;2023-01-16T02:13:14;100597.91;;;0.68;100.00
2268;BME280;11052;43.338;25.502;2023-01-16T02:15:41;100598.72;;;0.65;100.00
2268;BME280;11052;43.338;25.502;2023-01-16T02:18:22;100597.88;;;0.66;100.00
2268;BME280;11052;43.338;25.502;2023-01-16T02:21:21;100598.72;;;0.65;100.00
2268;BME280;11052;43.338;25.502;2023-01-16T02:24:16;100596.16;;;0.65;100.00
2268;BME280;11052;43.338;25.502;2023-01-16T02:27:00;100592.44;;;0.43;100.00
2268;BME280;11052;43.338;25.502;2023-01-16T02:29:46;100592.47;;;0.46;100.00
2268;BME280;11052;43.338;25.502;2023-01-16T02:32:29;100584.94;;;0.54;100.00
2268;BME280;11052;43.338;25.502;2023-01-16T02:35:16;100589.28;;;0.59;100.00
2268;BME280;11052;43.338;25.502;2023-01-16T02:37:50;100600.38;;;0.61;100.00
2268;BME280;11052;43.338;25.502;2023-01-16T02:40:33;100598.78;;;0.68;100.00
2268;BME280;11052;43.338;25.502;2023-01-16T02:43:12;100597.03;;;0.65;100.00
2268;BME280;11052;43.338;25.502;2023-01-16T02:45:45;100589.31;;;0.61;100.00
2268;BME280;11052;43.338;25.502;2023-01-16T02:48:24;100594.19;;;0.46;100.00
2268;BME280;11052;43.338;25.502;2023-01-16T02:50:57;100589.91;;;0.45;100.00
2268;BME280;11052;43.338;25.502;2023-01-16T02:53:32;100586.56;;;0.49;100.00
2268;BME280;11052;43.338;25.502;2023-01-16T02:56:05;100585.75;;;0.50;100.00
2268;BME280;11052;43.338;25.502;2023-01-16T02:58:43;100576.41;;;0.52;100.00
2268;BME280;11052;43.338;25.502;2023-01-16T03:01:11;100576.41;;;0.50;100.00
2268;BME280;11052;43.338;25.502;2023-01-16T03:03:42;100574.69;;;0.49;100.00
2268;BME280;11052;43.338;25.502;2023-01-16T03:06:38;100581.53;;;0.52;100.00
2268;BME280;11052;43.338;25.502;2023-01-16T03:09:31;100568.81;;;0.55;100.00
2268;BME280;11052;43.338;25.502;2023-01-16T03:12:20;100561.22;;;0.58;100.00
2268;BME280;11052;43.338;25.502;2023-01-16T03:14:57;100564.63;;;0.58;100.00
2268;BME280;11052;43.338;25.502;2023-01-16T03:17:39;100557.81;;;0.57;100.00
2268;BME280;11052;43.338;25.502;2023-01-16T03:20:15;100556.91;;;0.55;100.00
2268;BME280;11052;43.338;25.502;2023-01-16T03:22:52;100552.69;;;0.57;100.00
2268;BME280;11052;43.338;25.502;2023-01-16T03:25:27;100552.78;;;0.63;100.00
2268;BME280;11052;43.338;25.502;2023-01-16T03:28:06;100556.19;;;0.62;100.00
2268;BME280;11052;43.338;25.502;2023-01-16T03:30:39;100551.00;;;0.58;100.00
2268;BME280;11052;43.338;25.502;2023-01-16T03:33:20;100550.97;;;0.55;100.00
2268;BME280;11052;43.338;25.502;2023-01-16T03:35:54;100545.03;;;0.56;100.00
2268;BME280;11052;43.338;25.502;2023-01-16T03:38:23;100545.91;;;0.58;100.00
2268;BME280;11052;43.338;25.502;2023-01-16T03:40:54;100532.13;;;0.45;100.00
2268;BME280;11052;43.338;25.502;2023-01-16T03:43:27;100533.81;;;0.45;100.00
2268;BME280;11052;43.338;25.502;2023-01-16T03:45:59;100532.88;;;0.40;100.00
2268;BME280;11052;43.338;25.502;2023-01-16T03:48:30;100537.91;;;0.35;100.00
2268;BME280;11052;43.338;25.502;2023-01-16T03:51:05;100531.13;;;0.36;100.00
2268;BME280;11052;43.338;25.502;2023-01-16T03:53:35;100531.22;;;0.42;100.00
2268;BME280;11052;43.338;25.502;2023-01-16T03:56:12;100531.06;;;0.31;100.00
2268;BME280;11052;43.338;25.502;2023-01-16T03:58:42;100520.88;;;0.32;100.00
2268;BME280;11052;43.338;25.502;2023-01-16T04:01:16;100524.25;;;0.30;100.00
2268;BME280;11052;43.338;25.502;2023-01-16T04:03:54;100519.97;;;0.27;100.00
2268;BME280;11052;43.338;25.502;2023-01-16T04:06:29;100520.00;;;0.30;100.00
2268;BME280;11052;43.338;25.502;2023-01-16T04:08:58;100514.91;;;0.30;100.00
2268;BME280;11052;43.338;25.502;2023-01-16T04:11:27;100516.56;;;0.28;100.00
2268;BME280;11052;43.338;25.502;2023-01-16T04:13:56;100515.66;;;0.23;100.00
2268;BME280;11052;43.338;25.502;2023-01-16T04:16:24;100517.31;;;0.21;100.00
2268;BME280;11052;43.338;25.502;2023-01-16T04:18:53;100515.59;;;0.20;100.00
2268;BME280;11052;43.338;25.502;2023-01-16T04:21:27;100509.56;;;0.15;100.00
2268;BME280;11052;43.338;25.502;2023-01-16T04:23:57;100505.31;;;0.14;100.00
2268;BME280;11052;43.338;25.502;2023-01-16T04:26:26;100506.19;;;0.16;100.00
2268;BME280;11052;43.338;25.502;2023-01-16T04:28:53;100503.63;;;0.16;100.00
2268;BME280;11052;43.338;25.502;2023-01-16T04:31:22;100506.19;;;0.16;100.00
2268;BME280;11052;43.338;25.502;2023-01-16T04:33:49;100498.44;;;0.10;100.00
2268;BME280;11052;43.338;25.502;2023-01-16T04:36:17;100490.81;;;0.10;100.00
2268;BME280;11052;43.338;25.502;2023-01-16T04:38:45;100483.81;;;-0.05;100.00
2268;BME280;11052;43.338;25.502;2023-01-16T04:41:13;100476.84;;;-0.15;100.00
2268;BME280;11052;43.338;25.502;2023-01-16T04:44:01;100464.94;;;-0.17;100.00
2268;BME280;11052;43.338;25.502;2023-01-16T04:46:28;100471.78;;;-0.13;100.00
2268;BME280;11052;43.338;25.502;2023-01-16T04:48:55;100474.25;;;-0.18;100.00
2268;BME280;11052;43.338;25.502;2023-01-16T04:51:23;100472.78;;;-0.04;100.00
2268;BME280;11052;43.338;25.502;2023-01-16T04:53:51;100461.78;;;0.00;100.00
2268;BME280;11052;43.338;25.502;2023-01-16T04:56:18;100466.00;;;-0.03;100.00
2268;BME280;11052;43.338;25.502;2023-01-16T04:58:46;100459.19;;;-0.04;100.00
2268;BME280;11052;43.338;25.502;2023-01-16T05:01:13;100460.94;;;-0.02;100.00
2268;BME280;11052;43.338;25.502;2023-01-16T05:03:40;100462.56;;;-0.05;100.00
2268;BME280;11052;43.338;25.502;2023-01-16T05:06:07;100460.72;;;-0.15;100.00
2268;BME280;11052;43.338;25.502;2023-01-16T05:08:34;100455.75;;;-0.08;100.00
2268;BME280;11052;43.338;25.502;2023-01-16T05:11:03;100464.25;;;-0.06;100.00
2268;BME280;11052;43.338;25.502;2023-01-16T05:13:30;100455.84;;;-0.02;100.00
2268;BME280;11052;43.338;25.502;2023-01-16T05:15:57;100463.50;;;0.03;100.00
2268;BME280;11052;43.338;25.502;2023-01-16T05:18:25;100455.84;;;0.02;100.00
2268;BME280;11052;43.338;25.502;2023-01-16T05:20:53;100454.06;;;-0.06;100.00
2268;BME280;11052;43.338;25.502;2023-01-16T05:23:21;100447.94;;;-0.18;100.00
2268;BME280;11052;43.338;25.502;2023-01-16T05:25:48;100443.69;;;-0.18;100.00
2268;BME280;11052;43.338;25.502;2023-01-16T05:28:17;100441.88;;;-0.25;100.00
2268;BME280;11052;43.338;25.502;2023-01-16T05:30:44;100452.81;;;-0.30;100.00
2268;BME280;11052;43.338;25.502;2023-01-16T05:33:11;100455.34;;;-0.32;100.00
2268;BME280;11052;43.338;25.502;2023-01-16T05:35:38;100460.59;;;-0.23;100.00
2268;BME280;11052;43.338;25.502;2023-01-16T05:38:05;100456.41;;;-0.19;100.00
2268;BME280;11052;43.338;25.502;2023-01-16T05:40:32;100447.03;;;-0.22;100.00
2268;BME280;11052;43.338;25.502;2023-01-16T05:42:59;100443.69;;;-0.18;100.00
2268;BME280;11052;43.338;25.502;2023-01-16T05:45:28;100441.16;;;-0.16;100.00
2268;BME280;11052;43.338;25.502;2023-01-16T05:47:55;100442.84;;;-0.18;100.00
2268;BME280;11052;43.338;25.502;2023-01-16T05:50:22;100445.41;;;-0.17;100.00
2268;BME280;11052;43.338;25.502;2023-01-16T05:52:49;100447.94;;;-0.17;100.00
2268;BME280;11052;43.338;25.502;2023-01-16T05:55:16;100449.44;;;-0.29;100.00
2268;BME280;11052;43.338;25.502;2023-01-16T05:57:44;100438.41;;;-0.30;100.00
2268;BME280;11052;43.338;25.502;2023-01-16T06:00:11;100427.41;;;-0.27;100.00
2268;BME280;11052;43.338;25.502;2023-01-16T06:02:40;100437.59;;;-0.27;100.00
2268;BME280;11052;43.338;25.502;2023-01-16T06:05:08;100436.91;;;-0.17;100.00
2268;BME280;11052;43.338;25.502;2023-01-16T06:07:35;100442.94;;;-0.12;100.00
2268;BME280;11052;43.338;25.502;2023-01-16T06:10:02;100434.53;;;-0.05;100.00
2268;BME280;11052;43.338;25.502;2023-01-16T06:12:30;100432.97;;;0.06;100.00
2268;BME280;11052;43.338;25.502;2023-01-16T06:14:58;100429.69;;;0.13;100.00
2268;BME280;11052;43.338;25.502;2023-01-16T06:17:25;100426.44;;;0.23;100.00
2268;BME280;11052;43.338;25.502;2023-01-16T06:19:54;100430.81;;;0.33;100.00
2268;BME280;11052;43.338;25.502;2023-01-16T06:22:23;100423.97;;;0.31;100.00
2268;BME280;11052;43.338;25.502;2023-01-16T06:24:51;100423.81;;;0.19;100.00
2268;BME280;11052;43.338;25.502;2023-01-16T06:27:18;100425.69;;;0.30;100.00
2268;BME280;11052;43.338;25.502;2023-01-16T06:29:45;100412.13;;;0.35;100.00
2268;BME280;11052;43.338;25.502;2023-01-16T06:32:12;100409.66;;;0.41;100.00
2268;BME280;11052;43.338;25.502;2023-01-16T06:34:41;100408.78;;;0.39;100.00
2268;BME280;11052;43.338;25.502;2023-01-16T06:37:10;100418.06;;;0.33;100.00
2268;BME280;11052;43.338;25.502;2023-01-16T06:39:38;100406.13;;;0.29;100.00
2268;BME280;11052;43.338;25.502;2023-01-16T06:42:05;100405.16;;;0.21;100.00
2268;BME280;11052;43.338;25.502;2023-01-16T06:44:32;100411.31;;;0.37;100.00
2268;BME280;11052;43.338;25.502;2023-01-16T06:46:59;100404.69;;;0.51;100.00
2268;BME280;11052;43.338;25.502;2023-01-16T06:49:27;100405.75;;;0.69;100.00
2268;BME280;11052;43.338;25.502;2023-01-16T06:51:54;100392.25;;;0.76;100.00
2268;BME280;11052;43.338;25.502;2023-01-16T06:54:23;100396.56;;;0.83;100.00
2268;BME280;11052;43.338;25.502;2023-01-16T06:56:50;100386.41;;;0.86;100.00
2268;BME280;11052;43.338;25.502;2023-01-16T06:59:17;100383.13;;;1.01;100.00
2268;BME280;11052;43.338;25.502;2023-01-16T07:01:44;100388.38;;;1.16;100.00
2268;BME280;11052;43.338;25.502;2023-01-16T07:04:11;100390.94;;;1.17;100.00
2268;BME280;11052;43.338;25.502;2023-01-16T07:06:38;100383.47;;;1.37;100.00
2268;BME280;11052;43.338;25.502;2023-01-16T07:09:07;100375.91;;;1.49;100.00
2268;BME280;11052;43.338;25.502;2023-01-16T07:11:35;100377.63;;;1.53;100.00
2268;BME280;11052;43.338;25.502;2023-01-16T07:14:02;100368.31;;;1.60;100.00
2268;BME280;11052;43.338;25.502;2023-01-16T07:16:47;100370.09;;;1.75;100.00
2268;BME280;11052;43.338;25.502;2023-01-16T07:19:31;100366.00;;;2.04;100.00
2268;BME280;11052;43.338;25.502;2023-01-16T07:22:16;100368.72;;;2.30;100.00
2268;BME280;11052;43.338;25.502;2023-01-16T07:25:08;100368.81;;;2.56;100.00
2268;BME280;11052;43.338;25.502;2023-01-16T07:27:38;100355.19;;;2.57;100.00
2268;BME280;11052;43.338;25.502;2023-01-16T07:30:07;100350.84;;;2.42;100.00
2268;BME280;11052;43.338;25.502;2023-01-16T07:32:35;100349.16;;;2.46;100.00
2268;BME280;11052;43.338;25.502;2023-01-16T07:35:02;100342.34;;;2.48;100.00
2268;BME280;11052;43.338;25.502;2023-01-16T07:37:30;100329.56;;;2.46;100.00
2268;BME280;11052;43.338;25.502;2023-01-16T07:39:57;100329.44;;;2.17;100.00
2268;BME280;11052;43.338;25.502;2023-01-16T07:42:24;100319.25;;;2.28;100.00
2268;BME280;11052;43.338;25.502;2023-01-16T07:44:53;100316.81;;;2.60;100.00
2268;BME280;11052;43.338;25.502;2023-01-16T07:47:20;100308.28;;;2.78;100.00
2268;BME280;11052;43.338;25.502;2023-01-16T07:49:47;100298.91;;;3.07;100.00
2268;BME280;11052;43.338;25.502;2023-01-16T07:52:14;100290.38;;;3.31;100.00
2268;BME280;11052;43.338;25.502;2023-01-16T07:54:42;100270.69;;;3.53;100.00
2268;BME280;11052;43.338;25.502;2023-01-16T07:57:10;100265.47;;;3.86;100.00
2268;BME280;11052;43.338;25.502;2023-01-16T07:59:37;100258.53;;;4.13;100.00
2268;BME280;11052;43.338;25.502;2023-01-16T08:02:05;100252.47;;;4.31;100.00
2268;BME280;11052;43.338;25.502;2023-01-16T08:04:32;100259.19;;;4.42;100.00
2268;BME280;11052;43.338;25.502;2023-01-16T08:06:59;100256.50;;;4.64;100.00
2268;BME280;11052;43.338;25.502;2023-01-16T08:09:26;100254.63;;;4.88;100.00
2268;BME280;11052;43.338;25.502;2023-01-16T08:11:54;100245.03;;;5.09;100.00
2268;BME280;11052;43.338;25.502;2023-01-16T08:14:21;100247.31;;;5.36;100.00
2268;BME280;11052;43.338;25.502;2023-01-16T08:16:48;100243.69;;;5.58;100.00
2268;BME280;11052;43.338;25.502;2023-01-16T08:19:16;100245.22;;;5.73;100.00
2268;BME280;11052;43.338;25.502;2023-01-16T08:21:43;100254.50;;;5.91;100.00
2268;BME280;11052;43.338;25.502;2023-01-16T08:24:11;100261.13;;;6.07;100.00
2268;BME280;11052;43.338;25.502;2023-01-16T08:26:40;100262.81;;;6.08;100.00
2268;BME280;11052;43.338;25.502;2023-01-16T08:29:09;100267.72;;;6.28;100.00
2268;BME280;11052;43.338;25.502;2023-01-16T08:31:36;100270.19;;;6.37;100.00
2268;BME280;11052;43.338;25.502;2023-01-16T08:34:03;100265.75;;;6.47;100.00
2268;BME280;11052;43.338;25.502;2023-01-16T08:36:32;100274.34;;;6.47;100.00
2268;BME280;11052;43.338;25.502;2023-01-16T08:38:59;100275.97;;;6.53;100.00
2268;BME280;11052;43.338;25.502;2023-01-16T08:41:27;100275.75;;;6.68;100.00
2268;BME280;11052;43.338;25.502;2023-01-16T08:44:11;100290.31;;;6.71;100.00
2268;BME280;11052;43.338;25.502;2023-01-16T08:46:59;100281.56;;;6.81;100.00
2268;BME280;11052;43.338;25.502;2023-01-16T08:49:45;100279.13;;;6.73;100.00
2268;BME280;11052;43.338;25.502;2023-01-16T08:52:36;100274.59;;;6.89;100.00
2268;BME280;11052;43.338;25.502;2023-01-16T08:55:05;100283.03;;;6.96;100.00
2268;BME280;11052;43.338;25.502;2023-01-16T08:57:32;100278.63;;;7.04;100.00
2268;BME280;11052;43.338;25.502;2023-01-16T09:00:00;100274.13;;;7.16;100.00
2268;BME280;11052;43.338;25.502;2023-01-16T09:02:28;100263.69;;;7.22;100.00
2268;BME280;11052;43.338;25.502;2023-01-16T09:04:57;100247.91;;;7.41;100.00
2268;BME280;11052;43.338;25.502;2023-01-16T09:07:24;100235.06;;;7.39;100.00
2268;BME280;11052;43.338;25.502;2023-01-16T09:09:52;100229.00;;;7.40;100.00
2268;BME280;11052;43.338;25.502;2023-01-16T09:12:20;100225.59;;;7.40;100.00
2268;BME280;11052;43.338;25.502;2023-01-16T09:15:06;100226.84;;;7.64;100.00
2268;BME280;11052;43.338;25.502;2023-01-16T09:17:33;100218.97;;;7.71;100.00
2268;BME280;11052;43.338;25.502;2023-01-16T09:20:00;100215.38;;;7.78;100.00
2268;BME280;11052;43.338;25.502;2023-01-16T09:22:28;100202.34;;;7.84;100.00
2268;BME280;11052;43.338;25.502;2023-01-16T09:24:57;100203.03;;;7.93;100.00
2268;BME280;11052;43.338;25.502;2023-01-16T09:27:24;100198.69;;;7.95;100.00
2268;BME280;11052;43.338;25.502;2023-01-16T09:29:52;100189.22;;;7.95;100.00
2268;BME280;11052;43.338;25.502;2023-01-16T09:32:19;100182.13;;;8.05;100.00
2268;BME280;11052;43.338;25.502;2023-01-16T09:34:46;100182.69;;;8.17;100.00
2268;BME280;11052;43.338;25.502;2023-01-16T09:37:13;100177.44;;;8.22;100.00
2268;BME280;11052;43.338;25.502;2023-01-16T09:39:41;100186.91;;;8.21;100.00
2268;BME280;11052;43.338;25.502;2023-01-16T09:42:33;100179.81;;;8.33;100.00
2268;BME280;11052;43.338;25.502;2023-01-16T09:45:24;100171.81;;;8.43;100.00
2268;BME280;11052;43.338;25.502;2023-01-16T09:47:54;100175.19;;;8.47;100.00
2268;BME280;11052;43.338;25.502;2023-01-16T09:50:29;100168.22;;;8.50;100.00
2268;BME280;11052;43.338;25.502;2023-01-16T09:52:59;100160.28;;;8.58;100.00
2268;BME280;11052;43.338;25.502;2023-01-16T09:55:45;100159.44;;;8.58;100.00
2268;BME280;11052;43.338;25.502;2023-01-16T09:58:31;100154.63;;;8.76;100.00
2268;BME280;11052;43.338;25.502;2023-01-16T10:01:02;100142.78;;;9.02;100.00
2268;BME280;11052;43.338;25.502;2023-01-16T10:03:30;100146.81;;;9.12;100.00
2268;BME280;11052;43.338;25.502;2023-01-16T10:06:05;100140.84;;;9.10;100.00
2268;BME280;11052;43.338;25.502;2023-01-16T10:08:46;100140.31;;;9.30;100.00
2268;BME280;11052;43.338;25.502;2023-01-16T10:11:24;100137.28;;;9.45;100.00
2268;BME280;11052;43.338;25.502;2023-01-16T10:14:11;100129.25;;;9.54;100.00
2268;BME280;11052;43.338;25.502;2023-01-16T10:16:53;100116.44;;;9.79;100.00
2268;BME280;11052;43.338;25.502;2023-01-16T10:19:33;100115.22;;;9.91;100.00
2268;BME280;11052;43.338;25.502;2023-01-16T10:22:21;100098.84;;;9.90;100.00
2268;BME280;11052;43.338;25.502;2023-01-16T10:25:01;100094.88;;;10.06;100.00
2268;BME280;11052;43.338;25.502;2023-01-16T10:27:37;100098.88;;;10.16;100.00
2268;BME280;11052;43.338;25.502;2023-01-16T10:30:14;100091.91;;;10.18;100.00
2268;BME280;11052;43.338;25.502;2023-01-16T10:32:47;100093.72;;;10.16;100.00
2268;BME280;11052;43.338;25.502;2023-01-16T10:35:23;100087.63;;;10.17;100.00
2268;BME280;11052;43.338;25.502;2023-01-16T10:37:51;100078.84;;;10.23;100.00
2268;BME280;11052;43.338;25.502;2023-01-16T10:40:21;100071.94;;;10.24;100.00
2268;BME280;11052;43.338;25.502;2023-01-16T10:42:56;100074.78;;;10.14;100.00
2268;BME280;11052;43.338;25.502;2023-01-16T10:45:44;100069.88;;;10.05;100.00
2268;BME280;11052;43.338;25.502;2023-01-16T10:48:44;100062.81;;;10.10;100.00
2268;BME280;11052;43.338;25.502;2023-01-16T10:51:28;100057.53;;;10.13;100.00
2268;BME280;11052;43.338;25.502;2023-01-16T10:53:55;100063.97;;;10.30;100.00
2268;BME280;11052;43.338;25.502;2023-01-16T10:56:24;100059.44;;;10.36;100.00
2268;BME280;11052;43.338;25.502;2023-01-16T10:58:51;100056.78;;;10.38;100.00
2268;BME280;11052;43.338;25.502;2023-01-16T11:01:23;100053.16;;;10.42;100.00
2268;BME280;11052;43.338;25.502;2023-01-16T11:03:53;100051.16;;;10.50;100.00
2268;BME280;11052;43.338;25.502;2023-01-16T11:06:23;100049.31;;;10.54;100.00
2268;BME280;11052;43.338;25.502;2023-01-16T11:08:53;100046.25;;;10.67;100.00
2268;BME280;11052;43.338;25.502;2023-01-16T11:11:21;100037.03;;;10.83;100.00
2268;BME280;11052;43.338;25.502;2023-01-16T11:14:12;100038.13;;;11.01;100.00
2268;BME280;11052;43.338;25.502;2023-01-16T11:17:19;100037.28;;;11.01;100.00
2268;BME280;11052;43.338;25.502;2023-01-16T11:20:07;100037.28;;;11.01;100.00
2268;BME280;11052;43.338;25.502;2023-01-16T11:22:38;100024.16;;;11.05;100.00
2268;BME280;11052;43.338;25.502;2023-01-16T11:25:09;100025.06;;;11.04;100.00
2268;BME280;11052;43.338;25.502;2023-01-16T11:27:43;100025.72;;;10.86;100.00
2268;BME280;11052;43.338;25.502;2023-01-16T11:30:16;100030.41;;;11.00;100.00
2268;BME280;11052;43.338;25.502;2023-01-16T11:32:48;100014.69;;;11.04;100.00
2268;BME280;11052;43.338;25.502;2023-01-16T11:35:17;100011.84;;;10.87;100.00
2268;BME280;11052;43.338;25.502;2023-01-16T11:37:48;100009.78;;;10.97;100.00
2268;BME280;11052;43.338;25.502;2023-01-16T11:40:18;99996.19;;;10.90;100.00
2268;BME280;11052;43.338;25.502;2023-01-16T11:42:51;99996.88;;;10.95;100.00
2268;BME280;11052;43.338;25.502;2023-01-16T11:45:40;100001.81;;;11.01;100.00
2268;BME280;11052;43.338;25.502;2023-01-16T11:48:27;99991.84;;;10.91;100.00
2268;BME280;11052;43.338;25.502;2023-01-16T11:50:56;99998.59;;;10.71;100.00
2268;BME280;11052;43.338;25.502;2023-01-16T11:53:28;100002.19;;;10.67;100.00
2268;BME280;11052;43.338;25.502;2023-01-16T11:56:14;99990.44;;;10.57;100.00
2268;BME280;11052;43.338;25.502;2023-01-16T11:58:52;99988.97;;;10.50;100.00
2268;BME280;11052;43.338;25.502;2023-01-16T12:01:26;99977.97;;;10.43;100.00
2268;BME280;11052;43.338;25.502;2023-01-16T12:04:22;99983.16;;;10.43;100.00
2268;BME280;11052;43.338;25.502;2023-01-16T12:06:56;99979.75;;;10.41;100.00
2268;BME280;11052;43.338;25.502;2023-01-16T12:09:40;99979.25;;;10.32;100.00
2268;BME280;11052;43.338;25.502;2023-01-16T12:12:17;99972.59;;;10.25;100.00
2268;BME280;11052;43.338;25.502;2023-01-16T12:15:04;99962.22;;;10.25;100.00
2268;BME280;11052;43.338;25.502;2023-01-16T12:17:46;99961.97;;;10.32;100.00
2268;BME280;11052;43.338;25.502;2023-01-16T12:20:25;99954.31;;;10.29;100.00
2268;BME280;11052;43.338;25.502;2023-01-16T12:23:17;99957.78;;;10.28;100.00
2268;BME280;11052;43.338;25.502;2023-01-16T12:25:54;99954.34;;;10.28;100.00
2268;BME280;11052;43.338;25.502;2023-01-16T12:28:32;99952.72;;;10.25;100.00
2268;BME280;11052;43.338;25.502;2023-01-16T12:31:18;99945.09;;;10.21;100.00
2268;BME280;11052;43.338;25.502;2023-01-16T12:34:13;99950.88;;;10.29;100.00
2268;BME280;11052;43.338;25.502;2023-01-16T12:36:54;99938.97;;;10.23;100.00
2268;BME280;11052;43.338;25.502;2023-01-16T12:39:28;99946.97;;;10.15;100.00
2268;BME280;11052;43.338;25.502;2023-01-16T12:42:05;99943.16;;;10.27;100.00
2268;BME280;11052;43.338;25.502;2023-01-16T12:44:56;99942.00;;;10.09;100.00
2268;BME280;11052;43.338;25.502;2023-01-16T12:47:39;99935.47;;;10.24;100.00
2268;BME280;11052;43.338;25.502;2023-01-16T12:50:19;99941.56;;;10.23;100.00
2268;BME280;11052;43.338;25.502;2023-01-16T12:53:07;99942.69;;;10.14;100.00
2268;BME280;11052;43.338;25.502;2023-01-16T12:55:42;99933.63;;;10.01;100.00
2268;BME280;11052;43.338;25.502;2023-01-16T12:58:13;99930.31;;;9.98;100.00
2268;BME280;11052;43.338;25.502;2023-01-16T13:00:44;99927.50;;;10.04;100.00
2268;BME280;11052;43.338;25.502;2023-01-16T13:03:20;99921.34;;;10.08;100.00
2268;BME280;11052;43.338;25.502;2023-01-16T13:05:51;99926.50;;;10.08;100.00
2268;BME280;11052;43.338;25.502;2023-01-16T13:08:25;99925.66;;;10.07;100.00
2268;BME280;11052;43.338;25.502;2023-01-16T13:10:56;99922.63;;;9.95;100.00
2268;BME280;11052;43.338;25.502;2023-01-16T13:13:48;99924.19;;;10.00;100.00
2268;BME280;11052;43.338;25.502;2023-01-16T13:16:22;99918.47;;;10.15;100.00